createdAt,value
2022-11-15T00:01:18.027Z,6.88
2022-11-15T00:03:46.369Z,8.32
2022-11-15T00:06:13.900Z,5.75
2022-11-15T00:08:41.432Z,9.20
2022-11-15T00:11:12.029Z,7.00
2022-11-15T00:13:40.096Z,8.50
2022-11-15T00:16:08.118Z,9.48
2022-11-15T00:18:35.751Z,9.98
2022-11-15T00:21:09.184Z,8.15
2022-11-15T00:23:37.081Z,9.90
2022-11-15T00:26:04.847Z,7.10
2022-11-15T00:28:32.382Z,9.68
2022-11-15T00:31:09.728Z,10.07
2022-11-15T00:33:37.578Z,10.20
2022-11-15T00:36:08.426Z,9.05
2022-11-15T00:38:38.467Z,6.78
2022-11-15T00:41:09.904Z,7.20
2022-11-15T00:43:38.122Z,7.88
2022-11-15T00:46:05.820Z,8.60
2022-11-15T00:48:34.512Z,7.50
2022-11-15T00:51:02.600Z,7.10
2022-11-15T00:53:30.516Z,7.95
2022-11-15T00:55:58.218Z,6.27
2022-11-15T00:58:25.836Z,7.30
2022-11-15T01:00:53.352Z,6.72
2022-11-15T01:03:20.974Z,5.47
2022-11-15T01:05:48.513Z,6.85
2022-11-15T01:08:17.323Z,6.35
2022-11-15T01:10:45.148Z,6.22
2022-11-15T01:13:12.917Z,6.45
2022-11-15T01:15:41.781Z,6.45
2022-11-15T01:18:09.443Z,5.07
2022-11-15T01:20:43.885Z,7.68
2022-11-15T01:23:11.528Z,6.82
2022-11-15T01:25:39.274Z,5.72
2022-11-15T01:28:07.268Z,7.93
2022-11-15T01:30:36.624Z,6.25
2022-11-15T01:33:04.178Z,6.78
2022-11-15T01:35:31.967Z,5.75
2022-11-15T01:37:59.779Z,6.57
2022-11-15T01:40:27.599Z,5.30
2022-11-15T01:42:55.365Z,6.25
2022-11-15T01:45:23.131Z,6.20
2022-11-15T01:47:57.971Z,8.50
2022-11-15T01:50:30.842Z,5.80
2022-11-15T01:52:58.500Z,6.47
2022-11-15T01:55:28.074Z,5.80
2022-11-15T01:58:00.903Z,7.28
2022-11-15T02:00:30.205Z,5.60
2022-11-15T02:02:58.028Z,6.18
2022-11-15T02:05:26.073Z,7.63
2022-11-15T02:07:55.376Z,3.90
2022-11-15T02:10:25.599Z,6.70
2022-11-15T02:12:54.462Z,6.65
2022-11-15T02:15:22.391Z,7.40
2022-11-15T02:18:20.686Z,6.47
2022-11-15T02:21:07.195Z,4.57
2022-11-15T02:23:46.570Z,5.22
2022-11-15T02:26:57.442Z,6.07
2022-11-15T02:29:55.219Z,5.88
2022-11-15T02:32:36.547Z,5.38
2022-11-15T02:35:23.760Z,4.53
2022-11-15T02:38:00.869Z,5.25
2022-11-15T02:40:38.099Z,4.63
2022-11-15T02:43:28.575Z,4.75
2022-11-15T02:46:11.247Z,3.33
2022-11-15T02:48:39.227Z,3.80
2022-11-15T02:51:07.277Z,4.03
2022-11-15T02:53:34.817Z,2.28
2022-11-15T02:56:03.004Z,5.40
2022-11-15T02:59:22.040Z,3.97
2022-11-15T03:04:30.412Z,3.10
2022-11-15T03:07:17.873Z,3.15
2022-11-15T03:10:10.688Z,2.85
2022-11-15T03:12:49.979Z,3.47
2022-11-15T03:15:23.541Z,3.70
2022-11-15T03:17:58.799Z,2.53
2022-11-15T03:20:28.951Z,3.08
2022-11-15T03:23:02.134Z,2.75
2022-11-15T03:25:32.201Z,2.47
2022-11-15T03:28:05.150Z,2.10
2022-11-15T03:30:38.222Z,3.03
2022-11-15T03:33:07.464Z,3.67
2022-11-15T03:35:39.978Z,1.20
2022-11-15T03:38:22.573Z,1.92
2022-11-15T03:40:56.152Z,1.77
2022-11-15T03:43:45.106Z,1.05
2022-11-15T03:46:17.271Z,2.70
2022-11-15T03:48:50.066Z,2.15
2022-11-15T03:51:18.351Z,2.20
2022-11-15T03:53:46.973Z,1.83
2022-11-15T03:56:14.384Z,1.77
2022-11-15T03:58:41.845Z,1.13
2022-11-15T04:01:09.773Z,1.40
2022-11-15T04:03:37.474Z,1.23
2022-11-15T04:06:05.124Z,0.60
2022-11-15T04:08:32.659Z,0.73
2022-11-15T04:11:02.284Z,1.90
2022-11-15T04:13:30.281Z,1.73
2022-11-15T04:15:58.315Z,1.35
2022-11-15T04:18:26.183Z,1.08
2022-11-15T04:21:12.499Z,1.33
2022-11-15T04:23:58.569Z,1.60
2022-11-15T04:26:26.494Z,0.57
2022-11-15T04:29:12.924Z,1.85
2022-11-15T04:31:40.486Z,1.65
2022-11-15T04:34:08.224Z,5.18
2022-11-15T04:36:54.128Z,3.88
2022-11-15T04:39:21.753Z,1.70
2022-11-15T04:41:49.560Z,1.38
2022-11-15T04:44:17.925Z,2.20
2022-11-15T04:46:45.678Z,1.52
2022-11-15T04:49:13.407Z,0.98
2022-11-15T04:51:41.114Z,1.20
2022-11-15T04:54:08.870Z,0.50
2022-11-15T04:56:36.579Z,1.67
2022-11-15T04:59:04.316Z,2.45
2022-11-15T05:01:31.821Z,1.75
2022-11-15T05:04:17.645Z,1.23
2022-11-15T05:06:46.066Z,2.05
2022-11-15T05:09:16.891Z,1.17
2022-11-15T05:11:45.499Z,3.80
2022-11-15T05:14:12.993Z,4.28
2022-11-15T05:16:40.765Z,1.63
2022-11-15T05:19:08.451Z,4.30
2022-11-15T05:21:36.141Z,2.80
2022-11-15T05:24:03.879Z,3.28
2022-11-15T05:26:31.650Z,1.88
2022-11-15T05:29:00.234Z,1.73
2022-11-15T05:31:28.490Z,2.65
2022-11-15T05:33:57.613Z,2.67
2022-11-15T05:38:59.140Z,3.85
2022-11-15T05:42:12.781Z,3.65
2022-11-15T05:44:44.225Z,3.78
2022-11-15T05:47:17.602Z,2.55
2022-11-15T05:49:46.820Z,4.50
2022-11-15T05:54:44.363Z,4.18
2022-11-15T05:57:13.350Z,3.90
2022-11-15T06:02:09.732Z,2.20
2022-11-15T06:04:37.688Z,1.48
2022-11-15T06:07:05.436Z,2.05
2022-11-15T06:09:33.067Z,2.40
2022-11-15T06:12:00.816Z,1.58
2022-11-15T06:14:28.495Z,1.58
2022-11-15T06:16:56.490Z,4.43
2022-11-15T06:19:23.964Z,1.10
2022-11-15T06:21:51.648Z,2.08
2022-11-15T06:24:19.441Z,1.58
2022-11-15T06:26:47.152Z,1.55
2022-11-15T06:29:14.708Z,2.83
2022-11-15T06:31:42.376Z,0.63
2022-11-15T06:34:09.946Z,0.52
2022-11-15T06:36:37.663Z,0.50
2022-11-15T06:39:06.266Z,3.08
2022-11-15T06:41:36.968Z,0.60
2022-11-15T06:45:23.504Z,1.17
2022-11-15T06:47:51.436Z,2.03
2022-11-15T06:50:20.119Z,0.70
2022-11-15T06:53:10.228Z,0.52
2022-11-15T06:55:46.129Z,3.70
2022-11-15T06:58:14.532Z,0.98
2022-11-15T07:00:43.146Z,1.60
2022-11-15T07:03:11.269Z,1.65
2022-11-15T07:05:38.860Z,0.88
2022-11-15T07:08:06.773Z,0.90
2022-11-15T07:10:34.350Z,1.15
2022-11-15T07:13:02.173Z,4.68
2022-11-15T07:15:29.712Z,1.27
2022-11-15T07:17:57.198Z,2.78
2022-11-15T07:20:25.004Z,2.50
2022-11-15T07:23:01.116Z,1.67
2022-11-15T07:25:29.039Z,2.17
2022-11-15T07:27:57.674Z,0.57
2022-11-15T07:33:02.505Z,0.30
2022-11-15T07:35:31.146Z,1.02
2022-11-15T07:38:03.982Z,0.95
2022-11-15T07:40:33.095Z,2.72
2022-11-15T07:45:32.228Z,0.80
2022-11-15T07:48:00.775Z,1.43
2022-11-15T07:50:32.238Z,1.85
2022-11-15T07:53:00.940Z,0.55
2022-11-15T07:55:30.667Z,0.75
2022-11-15T07:58:20.363Z,2.88
2022-11-15T08:00:48.357Z,0.75
2022-11-15T08:03:18.040Z,1.35
2022-11-15T08:05:52.563Z,1.48
2022-11-15T08:08:20.471Z,1.30
2022-11-15T08:10:48.622Z,1.20
2022-11-15T08:13:16.343Z,1.95
2022-11-15T08:15:44.800Z,3.97
2022-11-15T08:18:14.935Z,2.50
2022-11-15T08:20:44.613Z,4.13
2022-11-15T08:23:14.014Z,2.80
2022-11-15T08:25:41.789Z,4.10
2022-11-15T08:28:11.687Z,1.25
2022-11-15T08:30:43.132Z,2.67
2022-11-15T08:33:13.525Z,2.22
2022-11-15T08:35:44.674Z,5.97
2022-11-15T08:38:12.715Z,1.80
2022-11-15T08:40:42.792Z,0.98
2022-11-15T08:43:10.521Z,3.22
2022-11-15T08:45:37.982Z,3.10
2022-11-15T08:48:06.967Z,1.83
2022-11-15T08:50:35.105Z,2.00
2022-11-15T08:53:07.981Z,2.23
2022-11-15T08:55:39.589Z,3.55
2022-11-15T08:58:07.275Z,3.72
2022-11-15T09:00:35.807Z,4.93
2022-11-15T09:03:07.968Z,3.22
2022-11-15T09:05:38.553Z,2.30
2022-11-15T09:08:25.067Z,5.15
2022-11-15T09:10:53.685Z,2.78
2022-11-15T09:13:21.136Z,0.75
2022-11-15T09:15:48.821Z,2.92
2022-11-15T09:18:16.290Z,3.17
2022-11-15T09:20:44.273Z,2.17
2022-11-15T09:23:11.991Z,6.47
2022-11-15T09:25:39.428Z,2.40
2022-11-15T09:28:08.534Z,3.03
2022-11-15T09:30:36.804Z,2.17
2022-11-15T09:33:12.186Z,1.75
2022-11-15T09:35:39.631Z,2.42
2022-11-15T09:38:07.555Z,2.70
2022-11-15T09:40:38.423Z,5.88
2022-11-15T09:43:19.254Z,1.02
2022-11-15T09:45:55.632Z,2.22
2022-11-15T09:48:50.624Z,0.60
2022-11-15T09:51:34.228Z,3.20
2022-11-15T09:56:53.196Z,2.63
2022-11-15T09:59:29.198Z,2.17
2022-11-15T10:01:59.671Z,1.73
2022-11-15T10:04:28.289Z,1.75
2022-11-15T10:07:26.217Z,4.72
2022-11-15T10:09:58.216Z,2.40
2022-11-15T10:12:28.392Z,2.72
2022-11-15T10:15:05.467Z,2.80
2022-11-15T10:18:08.811Z,2.35
2022-11-15T10:20:51.731Z,2.22
2022-11-15T10:23:22.587Z,2.35
2022-11-15T10:25:56.223Z,3.00
2022-11-15T10:28:29.796Z,2.55
2022-11-15T10:31:00.044Z,2.60
2022-11-15T10:33:27.505Z,2.55
2022-11-15T10:36:10.770Z,2.00
2022-11-15T10:38:50.430Z,2.47
2022-11-15T10:41:28.417Z,3.38
2022-11-15T10:44:07.803Z,2.40
2022-11-15T10:46:46.744Z,3.10
2022-11-15T10:49:14.763Z,2.83
2022-11-15T10:51:48.863Z,2.40
2022-11-15T10:54:28.974Z,2.92
2022-11-15T10:56:59.756Z,3.15
2022-11-15T10:59:36.148Z,2.75
2022-11-15T11:04:52.920Z,1.65
2022-11-15T11:07:24.609Z,1.43
2022-11-15T11:09:59.907Z,2.22
2022-11-15T11:12:34.256Z,2.33
2022-11-15T11:15:10.433Z,2.47
2022-11-15T11:17:58.343Z,3.17
2022-11-15T11:20:43.037Z,3.63
2022-11-15T11:23:25.890Z,3.63
2022-11-15T11:26:18.136Z,3.95
2022-11-15T11:29:13.743Z,2.28
2022-11-15T11:31:49.544Z,1.92
2022-11-15T11:34:35.630Z,3.55
2022-11-15T11:37:24.490Z,3.10
2022-11-15T11:40:11.318Z,2.65
2022-11-15T11:43:02.476Z,2.70
2022-11-15T11:45:52.970Z,2.60
2022-11-15T11:48:41.812Z,4.07
2022-11-15T11:51:31.921Z,1.90
2022-11-15T11:54:07.214Z,2.25
2022-11-15T11:56:37.896Z,1.30
2022-11-15T11:59:46.026Z,5.00
2022-11-15T12:02:31.375Z,1.63
2022-11-15T12:05:10.630Z,2.75
2022-11-15T12:07:40.486Z,3.60
2022-11-15T12:10:36.510Z,2.63
2022-11-15T12:13:19.457Z,4.25
2022-11-15T12:15:57.066Z,2.35
2022-11-15T12:18:24.630Z,1.65
2022-11-15T12:21:00.712Z,4.68
2022-11-15T12:23:53.269Z,2.88
2022-11-15T12:26:30.047Z,2.15
2022-11-15T12:29:07.985Z,3.55
2022-11-15T12:31:44.842Z,2.13
2022-11-15T12:34:21.306Z,2.15
2022-11-15T12:36:50.560Z,4.97
2022-11-15T12:39:19.613Z,2.22
2022-11-15T12:41:56.504Z,5.75
2022-11-15T12:44:32.895Z,4.20
2022-11-15T12:47:08.383Z,3.22
2022-11-15T12:49:36.106Z,3.50
2022-11-15T12:52:04.769Z,1.77
2022-11-15T12:54:41.514Z,2.67
2022-11-15T12:57:08.973Z,3.95
2022-11-15T12:59:58.834Z,7.43
2022-11-15T13:02:34.672Z,3.45
2022-11-15T13:05:19.305Z,2.13
2022-11-15T13:07:47.195Z,7.55
2022-11-15T13:10:15.167Z,3.60
2022-11-15T13:12:45.551Z,2.65
2022-11-15T13:15:13.392Z,1.88
2022-11-15T13:17:45.113Z,2.92
2022-11-15T13:20:15.259Z,3.00
2022-11-15T13:23:03.440Z,4.30
2022-11-15T13:25:38.027Z,2.45
2022-11-15T13:28:17.878Z,2.40
2022-11-15T13:30:48.695Z,3.70
2022-11-15T13:33:37.665Z,4.43
2022-11-15T13:36:28.757Z,3.63
2022-11-15T13:39:13.394Z,2.88
2022-11-15T13:41:52.380Z,2.08
2022-11-15T13:44:23.055Z,2.75
2022-11-15T13:47:03.360Z,2.22
2022-11-15T13:49:33.638Z,1.00
2022-11-15T13:52:05.744Z,4.07
2022-11-15T13:54:45.429Z,3.10
2022-11-15T13:57:20.081Z,3.15
2022-11-15T13:59:59.121Z,2.65
2022-11-15T14:02:31.952Z,1.35
2022-11-15T14:05:06.967Z,3.28
2022-11-15T14:07:41.833Z,2.58
2022-11-15T14:10:39.327Z,4.07
2022-11-15T14:13:28.268Z,5.00
2022-11-15T14:16:12.996Z,1.92
2022-11-15T14:18:44.314Z,1.58
2022-11-15T14:21:12.583Z,3.08
2022-11-15T14:23:40.566Z,2.25
2022-11-15T14:26:27.045Z,2.25
2022-11-15T14:28:54.822Z,2.63
2022-11-15T14:31:23.084Z,1.20
2022-11-15T14:33:50.635Z,2.00
2022-11-15T14:36:21.181Z,3.10
2022-11-15T14:38:49.030Z,3.17
2022-11-15T14:41:20.036Z,3.40
2022-11-15T14:43:47.563Z,4.05
2022-11-15T14:46:15.148Z,2.30
2022-11-15T14:48:43.148Z,3.60
2022-11-15T14:51:16.376Z,2.55
2022-11-15T14:53:45.237Z,1.95
2022-11-15T14:56:13.640Z,2.78
2022-11-15T14:58:42.014Z,1.15
2022-11-15T15:01:22.795Z,2.08
2022-11-15T15:03:52.701Z,3.13
2022-11-15T15:06:20.217Z,3.03
2022-11-15T15:08:49.475Z,2.42
2022-11-15T15:11:43.150Z,1.67
2022-11-15T15:14:15.902Z,2.15
2022-11-15T15:16:43.437Z,3.53
2022-11-15T15:19:11.147Z,3.10
2022-11-15T15:21:38.869Z,2.78
2022-11-15T15:24:06.999Z,1.00
2022-11-15T15:26:37.433Z,2.03
2022-11-15T15:29:05.343Z,2.25
2022-11-15T15:31:34.148Z,1.33
2022-11-15T15:34:02.544Z,2.90
2022-11-15T15:36:30.229Z,1.75
2022-11-15T15:38:57.778Z,3.17
2022-11-15T15:41:25.379Z,4.43
2022-11-15T15:43:53.310Z,1.33
2022-11-15T15:46:21.527Z,3.17
2022-11-15T15:48:49.366Z,2.20
2022-11-15T15:51:20.524Z,1.98
2022-11-15T15:53:49.495Z,2.45
2022-11-15T15:56:16.919Z,1.00
2022-11-15T15:58:44.640Z,2.22
2022-11-15T16:01:12.419Z,3.13
2022-11-15T16:03:40.099Z,4.38
2022-11-15T16:06:37.630Z,3.05
2022-11-15T16:09:15.177Z,3.78
2022-11-15T16:11:46.332Z,2.67
2022-11-15T16:14:14.523Z,4.72
2022-11-15T16:16:42.083Z,2.67
2022-11-15T16:19:12.060Z,2.75
2022-11-15T16:21:39.480Z,4.88
2022-11-15T16:24:06.985Z,3.15
2022-11-15T16:26:36.844Z,2.42
2022-11-15T16:29:04.625Z,1.75
2022-11-15T16:31:32.439Z,1.30
2022-11-15T16:34:00.214Z,2.33
2022-11-15T16:36:31.246Z,2.53
2022-11-15T16:39:01.025Z,3.45
2022-11-15T16:41:28.998Z,2.63
2022-11-15T16:43:56.437Z,4.50
2022-11-15T16:46:28.928Z,2.00
2022-11-15T16:48:57.239Z,3.20
2022-11-15T16:51:25.036Z,5.15
2022-11-15T16:53:53.095Z,2.60
2022-11-15T16:56:29.373Z,3.42
2022-11-15T16:58:59.007Z,3.78
2022-11-15T17:01:35.687Z,3.22
2022-11-15T17:04:12.840Z,2.90
2022-11-15T17:06:42.469Z,3.65
2022-11-15T17:09:18.853Z,3.72
2022-11-15T17:11:47.132Z,3.90
2022-11-15T17:14:16.670Z,2.33
2022-11-15T17:16:44.901Z,3.03
2022-11-15T17:19:18.355Z,2.30
2022-11-15T17:21:47.034Z,2.30
2022-11-15T17:24:21.124Z,4.03
2022-11-15T17:26:50.206Z,3.33
2022-11-15T17:29:18.615Z,4.28
2022-11-15T17:31:46.269Z,2.25
2022-11-15T17:34:13.897Z,3.60
2022-11-15T17:36:41.770Z,2.83
2022-11-15T17:39:09.615Z,3.88
2022-11-15T17:41:38.059Z,2.22
2022-11-15T17:44:05.894Z,3.70
2022-11-15T17:46:34.161Z,7.35
2022-11-15T17:49:02.264Z,3.53
2022-11-15T17:51:29.947Z,2.55
2022-11-15T17:53:58.692Z,1.58
2022-11-15T17:56:28.240Z,4.35
2022-11-15T17:59:00.483Z,2.75
2022-11-15T18:01:33.002Z,3.83
2022-11-15T18:04:03.724Z,3.70
2022-11-15T18:06:33.915Z,3.72
2022-11-15T18:09:02.941Z,5.57
2022-11-15T18:11:38.688Z,3.97
2022-11-15T18:14:09.139Z,4.40
2022-11-15T18:16:37.796Z,3.28
2022-11-15T18:19:13.012Z,4.25
2022-11-15T18:22:01.782Z,3.35
2022-11-15T18:24:31.793Z,3.78
2022-11-15T18:27:00.993Z,3.03
2022-11-15T18:31:56.376Z,2.08
2022-11-15T18:34:25.934Z,2.40
2022-11-15T18:36:53.961Z,2.72
2022-11-15T18:39:21.883Z,1.97
2022-11-15T18:41:50.387Z,2.83
2022-11-15T18:44:18.476Z,2.53
2022-11-15T18:46:46.407Z,3.30
2022-11-15T18:49:16.809Z,2.75
2022-11-15T18:51:44.886Z,3.17
2022-11-15T18:54:15.087Z,2.10
2022-11-15T18:56:47.041Z,2.22
2022-11-15T18:59:15.525Z,2.60
2022-11-15T19:01:48.787Z,3.33
2022-11-15T19:04:19.187Z,2.35
2022-11-15T19:06:49.111Z,1.98
2022-11-15T19:09:19.225Z,0.90
2022-11-15T19:11:48.205Z,2.55
2022-11-15T19:14:17.503Z,3.22
2022-11-15T19:16:52.340Z,4.15
2022-11-15T19:19:25.282Z,2.67
2022-11-15T19:21:53.920Z,2.55
2022-11-15T19:24:21.967Z,1.65
2022-11-15T19:26:50.073Z,1.73
2022-11-15T19:29:18.451Z,4.28
2022-11-15T19:31:48.620Z,1.60
2022-11-15T19:34:16.678Z,3.55
2022-11-15T19:36:45.329Z,1.55
2022-11-15T19:39:15.027Z,1.33
2022-11-15T19:41:44.322Z,2.40
2022-11-15T19:44:13.699Z,3.28
2022-11-15T19:46:41.742Z,10.32
2022-11-15T19:49:10.793Z,8.40
2022-11-15T19:54:08.893Z,4.90
2022-11-15T19:56:37.559Z,9.10
2022-11-15T19:59:05.569Z,13.05
2022-11-15T20:01:39.381Z,6.47
2022-11-15T20:04:10.132Z,2.95
2022-11-15T20:06:42.821Z,4.25
2022-11-15T20:09:16.133Z,5.30
2022-11-15T20:11:44.523Z,2.28
2022-11-15T20:14:13.236Z,2.45
2022-11-15T20:16:41.174Z,3.08
2022-11-15T20:19:09.323Z,3.33
2022-11-15T20:21:37.179Z,2.33
2022-11-15T20:24:05.308Z,3.63
2022-11-15T20:26:32.960Z,6.60
2022-11-15T20:29:02.213Z,6.43
2022-11-15T20:33:57.923Z,3.08
2022-11-15T20:36:25.829Z,5.00
2022-11-15T20:38:59.281Z,2.83
2022-11-15T20:41:27.605Z,5.30
2022-11-15T20:43:55.489Z,7.47
2022-11-15T20:46:23.362Z,3.92
2022-11-15T20:48:53.439Z,5.43
2022-11-15T20:51:21.385Z,4.82
2022-11-15T20:53:49.436Z,5.88
2022-11-15T20:56:20.649Z,2.90
2022-11-15T20:58:50.625Z,3.60
2022-11-15T21:01:24.590Z,14.88
2022-11-15T21:03:56.076Z,5.38
2022-11-15T21:06:25.789Z,4.47
2022-11-15T21:09:13.802Z,3.80
2022-11-15T21:14:28.585Z,7.10
2022-11-15T21:16:56.056Z,7.70
2022-11-15T21:19:30.099Z,7.13
2022-11-15T21:22:02.719Z,3.33
2022-11-15T21:24:30.338Z,9.45
2022-11-15T21:26:57.922Z,7.00
2022-11-15T21:29:25.564Z,3.95
2022-11-15T21:31:53.641Z,8.93
2022-11-15T21:34:22.191Z,6.05
2022-11-15T21:36:50.008Z,5.70
2022-11-15T21:39:17.824Z,5.00
2022-11-15T21:41:45.620Z,4.63
2022-11-15T21:44:13.327Z,6.05
2022-11-15T21:46:40.777Z,4.10
2022-11-15T21:49:08.966Z,2.10
2022-11-15T21:51:36.833Z,2.47
2022-11-15T21:54:04.561Z,3.10
2022-11-15T21:56:34.998Z,3.13
2022-11-15T21:59:03.002Z,2.70
2022-11-15T22:01:48.840Z,4.30
2022-11-15T22:04:16.734Z,4.43
2022-11-15T22:06:44.477Z,3.38
2022-11-15T22:09:12.157Z,2.25
2022-11-15T22:11:39.900Z,2.20
2022-11-15T22:14:07.662Z,1.98
2022-11-15T22:16:35.730Z,1.67
2022-11-15T22:19:03.741Z,1.40
2022-11-15T22:21:31.923Z,2.38
2022-11-15T22:23:59.925Z,1.52
2022-11-15T22:26:27.704Z,2.65
2022-11-15T22:28:55.149Z,3.22
2022-11-15T22:31:22.680Z,2.05
2022-11-15T22:33:50.266Z,2.58
2022-11-15T22:36:18.057Z,2.58
2022-11-15T22:38:45.678Z,4.93
2022-11-15T22:41:13.127Z,3.40
2022-11-15T22:43:40.815Z,2.20
2022-11-15T22:46:09.581Z,1.65
2022-11-15T22:48:38.956Z,2.33
2022-11-15T22:51:08.314Z,2.28
2022-11-15T22:53:35.957Z,1.38
2022-11-15T22:56:05.878Z,1.80
2022-11-15T22:58:34.430Z,2.47
2022-11-15T23:03:32.266Z,1.50
2022-11-15T23:06:07.531Z,2.42
2022-11-15T23:08:35.285Z,1.30
2022-11-15T23:11:23.306Z,4.07
2022-11-15T23:14:11.127Z,2.63
2022-11-15T23:16:58.573Z,1.70
2022-11-15T23:19:46.380Z,3.08
2022-11-15T23:22:48.721Z,2.13
2022-11-15T23:25:36.040Z,1.38
2022-11-15T23:28:05.067Z,1.67
2022-11-15T23:33:41.318Z,2.75
2022-11-15T23:36:09.143Z,1.60
2022-11-15T23:38:37.550Z,2.63
2022-11-15T23:41:06.238Z,2.78
2022-11-15T23:43:34.391Z,1.75
2022-11-15T23:46:02.368Z,2.30
2022-11-15T23:48:32.811Z,1.40
2022-11-15T23:51:00.603Z,1.07
2022-11-15T23:53:28.177Z,3.42
2022-11-15T23:56:07.894Z,1.33
2022-11-15T23:58:35.961Z,3.22
